CheckWX is a tool to help pilots better visualize weather data.  It is not intended as a substitute for an official pre-flight weather briefing.

14:51:28 UTC

ENHM TAF
Heimdal Oilp
Heimdal Oilp, Norway
TAF ENHM 231100Z 2312/2318 26040G50KT 9999 FEW020TCU BKN035 TEMPO 2312/2318 SHRAGS BKN015CB

Mar-23@
12:00 UTC

Mar-23 @ 12:00 UTC

Mar-23@
18:00 UTC

Mar-23 @ 18:00 UTC

TAF ENHM 231100Z 2312/2318 26040G50KT 9999 FEW020TCU BKN035
Wind
  • 260° at 40 KTS
  • {Gusting to 50 KTS
Cloud Levels
  • Few at 2,000' AGL
  • Broken at 3,500' AGL

Mar-23@
12:00 UTC

Mar-23 @ 12:00 UTC

Mar-23@
18:00 UTC

Mar-23 @ 18:00 UTC

TEMPO 2312/2318 SHRAGS BKN015CB

Temporary

Temporary Changes expected for less than half the time period

Conditions
Rain, Small hail
Cloud Levels
  • Broken at 1,500' AGL